Time;durP1;ratioP1;P1;durP2;ratioP2;P2;SDS_P1;SDS_P2;PMS_P1;PMS_P2;Temp;Humidity;BMP_temperature;BMP_pressure;BME280_temperature;BME280_humidity;BME280_pressure;Samples;Min_cycle;Max_cycle;Signal;HPM_P1;HPM_P2
2021/07/24 00:00:58;;;;;;;12.82;9.07;;;15.40;99.90;;;;;;4945355;28;20071;-75
2021/07/24 00:03:26;;;;;;;13.35;9.20;;;15.40;99.90;;;;;;4930043;28;20051;-75
2021/07/24 00:05:54;;;;;;;14.73;8.90;;;15.30;99.90;;;;;;4952655;28;20043;-74
2021/07/24 00:08:21;;;;;;;13.00;8.57;;;15.40;99.90;;;;;;4962435;28;20043;-76
2021/07/24 00:10:48;;;;;;;12.40;8.93;;;15.40;99.90;;;;;;4947635;28;20078;-76
2021/07/24 00:13:15;;;;;;;17.02;9.32;;;15.40;99.90;;;;;;4965808;28;20504;-76
2021/07/24 00:15:42;;;;;;;13.07;9.13;;;15.30;99.90;;;;;;4944746;28;20065;-75
2021/07/24 00:18:09;;;;;;;15.93;9.55;;;15.20;99.90;;;;;;4944093;28;20034;-76
2021/07/24 00:20:37;;;;;;;14.10;9.35;;;15.20;99.90;;;;;;4963032;28;20046;-75
2021/07/24 00:23:06;;;;;;;16.48;9.30;;;15.20;99.90;;;;;;4965868;28;20131;-75
2021/07/24 00:25:35;;;;;;;11.07;8.73;;;15.20;99.90;;;;;;4947794;28;20404;-76
2021/07/24 00:28:02;;;;;;;14.32;9.13;;;15.20;99.90;;;;;;4964192;28;20158;-74
2021/07/24 00:30:29;;;;;;;14.77;9.52;;;15.20;99.90;;;;;;4951205;28;20046;-75
2021/07/24 00:33:00;;;;;;;12.13;8.57;;;15.30;99.90;;;;;;4946641;28;20050;-76
2021/07/24 00:35:27;;;;;;;15.05;9.23;;;15.20;99.90;;;;;;4958272;28;20051;-75
2021/07/24 00:37:55;;;;;;;15.95;9.93;;;15.20;99.90;;;;;;4933159;29;20043;-75
2021/07/24 00:40:24;;;;;;;15.65;9.05;;;15.20;99.90;;;;;;4944448;29;20053;-75
2021/07/24 00:42:53;;;;;;;19.90;9.85;;;15.20;99.90;;;;;;4942947;29;20579;-74
2021/07/24 00:45:21;;;;;;;12.48;9.10;;;15.10;99.90;;;;;;4923791;28;20158;-75
2021/07/24 00:47:56;;;;;;;16.23;9.00;;;15.10;99.90;;;;;;4954728;28;20069;-75
2021/07/24 00:50:37;;;;;;;15.00;9.20;;;15.00;99.90;;;;;;4928370;29;20047;-75
2021/07/24 00:53:14;;;;;;;14.93;9.90;;;15.00;99.90;;;;;;4928795;29;20055;-75
2021/07/24 00:55:40;;;;;;;14.73;9.35;;;15.00;99.90;;;;;;4950317;28;20067;-76
2021/07/24 00:58:35;;;;;;;13.65;9.48;;;15.00;99.90;;;;;;4933249;29;20055;-76
2021/07/24 01:01:04;;;;;;;12.35;9.10;;;15.10;99.90;;;;;;4931999;29;20091;-75
2021/07/24 01:03:32;;;;;;;13.75;8.70;;;15.00;99.90;;;;;;4945277;28;20416;-77
2021/07/24 01:06:00;;;;;;;13.05;9.45;;;15.00;99.90;;;;;;4944814;28;20042;-75
2021/07/24 01:08:31;;;;;;;12.05;9.45;;;15.00;99.90;;;;;;4933637;29;20087;-75
2021/07/24 01:11:00;;;;;;;12.95;9.07;;;15.00;99.90;;;;;;4931963;29;20082;-76
2021/07/24 01:13:28;;;;;;;14.45;9.57;;;15.00;99.90;;;;;;4933404;28;20055;-76
2021/07/24 01:15:56;;;;;;;12.23;8.88;;;15.00;99.90;;;;;;4935882;28;20059;-75
2021/07/24 01:18:29;;;;;;;10.98;8.10;;;15.00;99.90;;;;;;4948761;28;20051;-75
2021/07/24 01:21:00;;;;;;;17.10;9.55;;;14.90;99.90;;;;;;4953476;28;20066;-75
2021/07/24 01:23:30;;;;;;;18.77;10.13;;;14.90;99.90;;;;;;4934003;29;20055;-77
2021/07/24 01:25:58;;;;;;;14.85;10.82;;;14.80;99.90;;;;;;4935514;28;20043;-75
2021/07/24 01:28:34;;;;;;;12.48;8.57;;;14.70;99.90;;;;;;4951941;28;20055;-77
2021/07/24 01:31:05;;;;;;;13.65;9.25;;;14.80;99.90;;;;;;4949822;28;20221;-75
2021/07/24 01:33:34;;;;;;;13.15;10.02;;;14.70;99.90;;;;;;4954521;28;20102;-76
2021/07/24 01:36:03;;;;;;;15.35;9.77;;;14.50;99.90;;;;;;4956833;28;20051;-75
2021/07/24 01:38:36;;;;;;;14.63;10.10;;;14.50;99.90;;;;;;4932437;29;20051;-75
2021/07/24 01:41:10;;;;;;;14.15;8.70;;;14.40;99.90;;;;;;4950293;28;20058;-77
2021/07/24 01:43:40;;;;;;;15.15;9.80;;;14.30;99.90;;;;;;4975882;28;20054;-74
2021/07/24 01:46:07;;;;;;;16.88;9.85;;;14.40;99.90;;;;;;4966402;28;20061;-76
2021/07/24 01:49:10;;;;;;;12.52;8.73;;;14.30;99.90;;;;;;4954613;28;20077;-76
2021/07/24 01:54:43;;;;;;;15.57;10.38;;;14.40;99.90;;;;;;4963887;28;20109;-76
2021/07/24 01:57:14;;;;;;;15.63;9.32;;;14.30;99.90;;;;;;4935919;28;20128;-75
2021/07/24 01:59:54;;;;;;;13.07;10.02;;;14.20;99.90;;;;;;4934990;28;20125;-76
2021/07/24 02:02:24;;;;;;;11.75;8.95;;;14.20;99.90;;;;;;4934885;28;20055;-74
2021/07/24 02:04:52;;;;;;;12.23;9.27;;;14.20;99.90;;;;;;4944691;28;20074;-75
2021/07/24 02:07:23;;;;;;;13.25;9.02;;;14.20;99.90;;;;;;4940595;28;20092;-76
2021/07/24 02:09:57;;;;;;;13.10;9.95;;;14.40;99.90;;;;;;4936869;28;20046;-75
2021/07/24 02:12:49;;;;;;;13.70;9.23;;;14.70;99.90;;;;;;4963747;28;20499;-77
2021/07/24 02:15:16;;;;;;;18.30;10.63;;;14.50;99.90;;;;;;4930180;29;20062;-77
2021/07/24 02:17:49;;;;;;;13.95;9.57;;;14.50;99.90;;;;;;4942163;28;20427;-75
2021/07/24 02:20:19;;;;;;;12.48;9.60;;;14.40;99.90;;;;;;4961080;28;20528;-76
2021/07/24 02:22:46;;;;;;;14.60;10.98;;;14.50;99.90;;;;;;4948694;29;20051;-74
2021/07/24 02:25:14;;;;;;;15.60;9.77;;;14.30;99.90;;;;;;4935522;28;20242;-76
2021/07/24 02:27:45;;;;;;;12.55;9.75;;;14.20;99.90;;;;;;4947667;28;20376;-75
2021/07/24 02:30:14;;;;;;;14.00;9.30;;;14.20;99.90;;;;;;4930040;28;20043;-76
2021/07/24 02:32:42;;;;;;;13.80;10.60;;;14.20;99.90;;;;;;4947400;28;20085;-75
2021/07/24 02:35:11;;;;;;;15.40;11.02;;;14.20;99.90;;;;;;4942187;28;20055;-75
2021/07/24 02:37:52;;;;;;;16.05;10.57;;;14.20;99.90;;;;;;4947467;28;20089;-75
2021/07/24 02:40:21;;;;;;;15.02;10.93;;;14.20;99.90;;;;;;4953206;28;20078;-76
2021/07/24 02:43:03;;;;;;;15.27;10.15;;;14.30;99.90;;;;;;4965119;28;20082;-75
2021/07/24 02:45:30;;;;;;;14.82;10.65;;;14.50;99.90;;;;;;4933933;28;20501;-76
2021/07/24 02:47:57;;;;;;;14.43;10.43;;;14.40;99.90;;;;;;4932740;28;20468;-75
2021/07/24 02:50:24;;;;;;;17.95;10.05;;;14.40;99.90;;;;;;4958782;28;20406;-74
2021/07/24 02:52:52;;;;;;;15.40;10.73;;;14.30;99.90;;;;;;4951198;28;20051;-76
2021/07/24 02:55:19;;;;;;;17.05;10.68;;;14.20;99.90;;;;;;4949778;28;20137;-75
2021/07/24 02:57:47;;;;;;;13.80;9.68;;;14.20;99.90;;;;;;4950014;28;20523;-75
2021/07/24 03:00:14;;;;;;;14.05;10.15;;;14.20;99.90;;;;;;4965546;28;20456;-77
2021/07/24 03:02:41;;;;;;;13.48;10.18;;;14.30;99.90;;;;;;4966215;28;20062;-75
2021/07/24 03:05:09;;;;;;;14.68;9.38;;;14.30;99.90;;;;;;4945986;28;20396;-76
2021/07/24 03:07:36;;;;;;;14.93;9.15;;;14.30;99.90;;;;;;4949063;28;20185;-75
2021/07/24 03:10:03;;;;;;;13.48;8.85;;;14.40;99.90;;;;;;4957867;28;20051;-74
2021/07/24 03:12:30;;;;;;;13.40;9.18;;;14.50;99.90;;;;;;4949105;28;20055;-74
2021/07/24 03:14:57;;;;;;;14.52;8.90;;;14.50;99.90;;;;;;4933202;28;20047;-75
2021/07/24 03:17:26;;;;;;;11.50;9.02;;;14.70;99.90;;;;;;4964900;28;20063;-75
2021/07/24 03:19:53;;;;;;;13.20;9.65;;;14.80;99.90;;;;;;4946564;28;20051;-77
2021/07/24 03:22:20;;;;;;;14.70;10.48;;;14.70;99.90;;;;;;4930313;29;20078;-76
2021/07/24 03:24:47;;;;;;;11.05;9.50;;;14.60;99.90;;;;;;4930722;29;20117;-77
2021/07/24 03:27:17;;;;;;;14.13;10.32;;;14.60;99.90;;;;;;4930051;29;20531;-75
2021/07/24 03:29:45;;;;;;;11.60;9.02;;;14.60;99.90;;;;;;4934780;28;20681;-76
2021/07/24 03:32:12;;;;;;;15.43;9.65;;;14.60;99.90;;;;;;4966089;28;20066;-75
2021/07/24 03:34:39;;;;;;;11.55;9.50;;;14.70;99.90;;;;;;4939312;28;20066;-75
2021/07/24 03:37:06;;;;;;;15.48;9.90;;;14.50;99.90;;;;;;4952484;28;20141;-76
2021/07/24 03:39:33;;;;;;;13.80;10.20;;;14.50;99.90;;;;;;4938056;28;20046;-77
2021/07/24 03:41:59;;;;;;;13.60;9.40;;;14.70;99.90;;;;;;4978847;28;20053;-76
2021/07/24 03:44:27;;;;;;;12.15;9.68;;;14.70;99.90;;;;;;4933203;28;20043;-76
2021/07/24 03:46:53;;;;;;;17.15;9.80;;;14.60;99.90;;;;;;4930919;28;20054;-75
2021/07/24 03:49:20;;;;;;;14.27;9.48;;;14.60;99.90;;;;;;4930766;28;20409;-75
2021/07/24 03:51:48;;;;;;;12.98;8.45;;;14.80;99.90;;;;;;4975637;28;20082;-76
2021/07/24 03:54:15;;;;;;;14.43;8.80;;;15.00;99.90;;;;;;4949391;28;20051;-75
2021/07/24 03:56:42;;;;;;;13.27;9.43;;;15.10;99.90;;;;;;4964844;28;20534;-76
2021/07/24 03:59:09;;;;;;;14.25;9.85;;;15.10;99.90;;;;;;4957473;28;20058;-74
2021/07/24 04:01:36;;;;;;;14.27;9.75;;;15.10;99.90;;;;;;4945454;28;20059;-75
2021/07/24 04:04:03;;;;;;;13.45;9.77;;;15.10;99.90;;;;;;4931005;28;20043;-76
2021/07/24 04:06:31;;;;;;;12.82;9.60;;;15.10;99.90;;;;;;4952272;28;20056;-75
2021/07/24 04:08:58;;;;;;;16.17;9.80;;;15.00;99.90;;;;;;4945570;29;20551;-75
2021/07/24 04:11:27;;;;;;;11.35;8.65;;;15.00;99.90;;;;;;4952360;28;20054;-74
2021/07/24 04:13:55;;;;;;;13.02;9.43;;;14.80;99.90;;;;;;4931741;28;20118;-75
2021/07/24 04:16:22;;;;;;;15.90;9.95;;;14.90;99.90;;;;;;4965774;28;20062;-76
2021/07/24 04:18:50;;;;;;;13.60;9.13;;;14.90;99.90;;;;;;4932062;28;20071;-75
2021/07/24 04:21:17;;;;;;;12.23;9.10;;;14.90;99.90;;;;;;4930969;28;20073;-76
2021/07/24 04:23:44;;;;;;;11.18;8.73;;;14.90;99.90;;;;;;4966359;28;20050;-76
2021/07/24 04:26:11;;;;;;;14.95;10.48;;;14.90;99.90;;;;;;4934745;28;20122;-75
2021/07/24 04:28:38;;;;;;;11.30;10.00;;;14.80;99.90;;;;;;4950887;28;20059;-75
2021/07/24 04:31:12;;;;;;;15.35;9.00;;;14.90;99.90;;;;;;4965212;28;20063;-75
2021/07/24 04:33:39;;;;;;;14.50;10.68;;;15.00;99.90;;;;;;4967814;28;20047;-76
2021/07/24 04:36:07;;;;;;;15.00;9.45;;;15.00;99.90;;;;;;4953022;28;20047;-75
2021/07/24 04:38:34;;;;;;;13.40;9.45;;;15.10;99.90;;;;;;4949589;28;20057;-75
2021/07/24 04:41:01;;;;;;;11.95;9.63;;;15.20;99.90;;;;;;4957563;28;20051;-75
2021/07/24 04:43:28;;;;;;;11.05;8.43;;;15.40;99.90;;;;;;4930824;28;20053;-76
2021/07/24 04:45:55;;;;;;;14.45;8.80;;;15.40;99.90;;;;;;4962738;28;20396;-76
2021/07/24 04:48:22;;;;;;;14.43;9.30;;;15.50;99.90;;;;;;4963110;28;20623;-75
2021/07/24 04:50:52;;;;;;;12.57;8.50;;;15.60;99.90;;;;;;4927860;29;20088;-75
2021/07/24 04:53:21;;;;;;;12.32;8.27;;;15.80;99.90;;;;;;4969954;28;20055;-75
2021/07/24 04:55:48;;;;;;;13.27;9.57;;;15.80;99.90;;;;;;4946439;28;20058;-75
2021/07/24 04:58:15;;;;;;;10.32;8.25;;;15.80;99.90;;;;;;4948022;28;20046;-75
2021/07/24 05:00:43;;;;;;;13.57;9.80;;;15.90;99.90;;;;;;4931292;28;20074;-75
2021/07/24 05:03:14;;;;;;;10.93;9.43;;;16.10;99.90;;;;;;4947140;28;20057;-76
2021/07/24 05:05:42;;;;;;;11.00;8.93;;;16.00;99.90;;;;;;4956187;28;20054;-76
2021/07/24 05:08:10;;;;;;;12.15;9.02;;;16.00;99.90;;;;;;4960101;28;20110;-75
2021/07/24 05:10:39;;;;;;;12.15;9.07;;;16.30;99.90;;;;;;4928024;28;20040;-76
2021/07/24 05:13:05;;;;;;;11.93;9.13;;;16.50;99.90;;;;;;4959062;28;20487;-76
2021/07/24 05:15:33;;;;;;;11.63;9.27;;;16.60;99.90;;;;;;4962947;28;20058;-75
2021/07/24 05:18:00;;;;;;;11.25;10.15;;;16.70;99.90;;;;;;4942570;28;20046;-76
2021/07/24 05:20:29;;;;;;;10.60;9.55;;;16.70;99.90;;;;;;4943981;28;20503;-75
2021/07/24 05:22:57;;;;;;;11.13;10.00;;;16.80;99.90;;;;;;4934087;28;20229;-75
2021/07/24 05:25:25;;;;;;;10.68;9.65;;;17.00;99.90;;;;;;4963208;28;20046;-75
2021/07/24 05:27:52;;;;;;;11.48;10.38;;;17.10;99.90;;;;;;4968368;28;20067;-75
2021/07/24 05:30:19;;;;;;;12.15;10.07;;;17.30;99.90;;;;;;4975305;28;20047;-76
2021/07/24 05:32:46;;;;;;;11.50;10.40;;;17.50;99.90;;;;;;4968302;28;20096;-76
2021/07/24 05:35:13;;;;;;;15.20;12.05;;;17.90;99.90;;;;;;4926735;28;20039;-77
2021/07/24 05:37:40;;;;;;;11.50;10.43;;;18.20;99.90;;;;;;4941329;28;20062;-76
2021/07/24 05:40:07;;;;;;;11.60;10.48;;;18.20;99.90;;;;;;4952940;28;20055;-76
2021/07/24 05:42:34;;;;;;;12.32;11.18;;;18.50;99.90;;;;;;4944626;28;20126;-75
2021/07/24 05:45:03;;;;;;;12.05;10.80;;;18.90;99.90;;;;;;4949871;28;20101;-76
2021/07/24 05:47:31;;;;;;;12.07;10.63;;;18.40;99.90;;;;;;4952274;28;20059;-75
2021/07/24 05:49:59;;;;;;;11.70;10.55;;;18.10;99.90;;;;;;4967031;28;20070;-76
2021/07/24 05:52:26;;;;;;;12.32;11.23;;;18.10;99.90;;;;;;4966269;28;20039;-75
2021/07/24 05:54:53;;;;;;;12.57;11.27;;;18.00;99.90;;;;;;4934948;28;20059;-75
2021/07/24 05:57:20;;;;;;;12.50;10.48;;;17.90;99.90;;;;;;4966384;28;20050;-76
2021/07/24 05:59:48;;;;;;;12.13;10.90;;;17.90;99.90;;;;;;4950583;28;20145;-77
2021/07/24 06:02:16;;;;;;;12.18;10.50;;;18.00;99.90;;;;;;4950442;28;20046;-76
2021/07/24 06:04:43;;;;;;;12.05;11.02;;;18.00;99.90;;;;;;4935450;28;20518;-75
2021/07/24 06:07:11;;;;;;;12.45;11.25;;;17.90;99.90;;;;;;4958286;28;20112;-75
2021/07/24 06:09:39;;;;;;;12.20;10.98;;;18.10;99.90;;;;;;4949433;28;20114;-76
2021/07/24 06:12:07;;;;;;;11.20;10.20;;;18.20;99.90;;;;;;4921972;28;20047;-76
2021/07/24 06:14:34;;;;;;;13.55;11.13;;;18.10;99.90;;;;;;4961949;28;20117;-75
2021/07/24 06:17:04;;;;;;;13.02;10.95;;;18.20;99.90;;;;;;4933376;28;20070;-77
2021/07/24 06:19:31;;;;;;;14.82;10.80;;;18.10;99.90;;;;;;4933315;28;20050;-77
2021/07/24 06:21:59;;;;;;;13.13;11.90;;;18.40;99.90;;;;;;4949417;28;20463;-77
2021/07/24 06:24:26;;;;;;;12.63;11.32;;;18.40;99.90;;;;;;4967024;28;20057;-77
2021/07/24 06:26:53;;;;;;;13.18;11.57;;;18.40;99.90;;;;;;4969489;28;20167;-77
2021/07/24 06:29:20;;;;;;;12.27;11.18;;;18.60;99.90;;;;;;4948056;28;20051;-76
2021/07/24 06:31:47;;;;;;;13.20;11.90;;;18.60;99.90;;;;;;4915044;29;20055;-77
2021/07/24 06:34:14;;;;;;;13.55;12.13;;;18.70;99.90;;;;;;4956782;28;20043;-76
2021/07/24 06:36:41;;;;;;;13.20;11.98;;;18.90;99.90;;;;;;4926486;28;20039;-77
2021/07/24 06:39:08;;;;;;;14.85;12.55;;;19.40;99.90;;;;;;4931397;29;20138;-76
2021/07/24 06:41:38;;;;;;;14.02;12.73;;;19.70;99.90;;;;;;4945830;28;20094;-78
2021/07/24 06:44:05;;;;;;;14.10;12.77;;;19.90;99.90;;;;;;4931735;29;20149;-78
2021/07/24 06:46:32;;;;;;;13.45;12.35;;;20.00;99.90;;;;;;4947133;28;20085;-78
2021/07/24 06:48:59;;;;;;;14.48;13.32;;;20.30;99.90;;;;;;4943341;28;20477;-77
2021/07/24 06:51:26;;;;;;;15.18;13.68;;;20.40;99.90;;;;;;4956434;28;20053;-78
2021/07/24 06:53:53;;;;;;;14.27;12.95;;;20.20;99.90;;;;;;4965402;28;20070;-77
2021/07/24 06:56:20;;;;;;;14.40;13.00;;;20.20;99.90;;;;;;4967975;28;20105;-77
2021/07/24 06:58:50;;;;;;;14.48;13.18;;;20.20;99.90;;;;;;4935360;28;20066;-77
2021/07/24 07:01:17;;;;;;;15.65;14.07;;;20.30;99.90;;;;;;4935104;28;20051;-77
2021/07/24 07:03:46;;;;;;;21.58;15.43;;;20.40;99.90;;;;;;4949650;28;20047;-77
2021/07/24 07:06:13;;;;;;;15.30;13.75;;;20.10;99.90;;;;;;4937121;28;20051;-78
2021/07/24 07:08:41;;;;;;;15.10;13.80;;;20.00;99.90;;;;;;4965344;28;20612;-77
2021/07/24 07:11:08;;;;;;;14.80;13.40;;;20.40;99.90;;;;;;4933074;28;20319;-78
2021/07/24 07:13:36;;;;;;;15.18;13.75;;;20.60;99.90;;;;;;4947783;28;20047;-74
2021/07/24 07:16:08;;;;;;;14.18;13.02;;;20.70;99.90;;;;;;4951959;28;20129;-76
2021/07/24 07:18:37;;;;;;;15.27;13.88;;;21.10;99.90;;;;;;4950721;28;20059;-76
2021/07/24 07:21:04;;;;;;;15.10;13.60;;;20.90;99.90;;;;;;4957092;28;20054;-76
2021/07/24 07:23:31;;;;;;;16.48;14.55;;;21.10;99.90;;;;;;4934469;28;20046;-76
2021/07/24 07:25:59;;;;;;;15.20;13.77;;;21.00;99.90;;;;;;4949996;28;20058;-77
2021/07/24 07:28:25;;;;;;;14.85;13.65;;;21.00;99.90;;;;;;4948362;29;20138;-76
2021/07/24 07:30:52;;;;;;;16.00;14.45;;;21.20;99.90;;;;;;4946626;29;20178;-76
2021/07/24 07:33:20;;;;;;;16.55;15.18;;;21.40;99.90;;;;;;4934936;28;20278;-75
2021/07/24 07:35:47;;;;;;;15.45;14.02;;;21.30;99.90;;;;;;4931878;28;20125;-76
2021/07/24 07:38:15;;;;;;;15.68;14.27;;;21.50;99.90;;;;;;4949326;28;20046;-77
2021/07/24 07:40:42;;;;;;;17.02;15.38;;;21.60;99.90;;;;;;4948251;28;20146;-75
2021/07/24 07:43:09;;;;;;;15.02;13.73;;;21.30;99.90;;;;;;4929319;28;20074;-75
2021/07/24 07:45:37;;;;;;;16.42;15.02;;;21.80;99.90;;;;;;4951046;28;20133;-76
2021/07/24 07:48:05;;;;;;;19.90;15.00;;;22.00;99.90;;;;;;4924620;28;20416;-76
2021/07/24 07:50:33;;;;;;;15.32;13.80;;;21.80;99.90;;;;;;4936298;28;20078;-76
2021/07/24 07:53:00;;;;;;;16.80;15.20;;;22.00;99.90;;;;;;4928506;29;20212;-76
2021/07/24 07:55:27;;;;;;;17.10;13.73;;;22.10;99.90;;;;;;4944159;28;20157;-75
2021/07/24 07:57:54;;;;;;;14.88;13.32;;;21.80;99.90;;;;;;4933822;28;20077;-76
2021/07/24 08:00:21;;;;;;;15.90;14.55;;;22.20;99.90;;;;;;4951015;28;20129;-77
2021/07/24 08:02:54;;;;;;;14.95;13.65;;;22.80;99.90;;;;;;4949651;28;20061;-76
2021/07/24 08:05:22;;;;;;;16.33;14.63;;;22.40;99.90;;;;;;4950518;28;20508;-76
2021/07/24 08:07:49;;;;;;;17.33;15.85;;;22.00;99.90;;;;;;4953112;28;20054;-76
2021/07/24 08:10:19;;;;;;;16.60;14.98;;;22.20;99.90;;;;;;4965756;28;20045;-76
2021/07/24 08:12:47;;;;;;;15.45;14.15;;;22.50;99.90;;;;;;4930872;29;20074;-76
2021/07/24 08:15:14;;;;;;;16.35;15.05;;;22.50;99.90;;;;;;4961821;28;20080;-77
2021/07/24 08:17:41;;;;;;;16.27;14.70;;;22.60;99.90;;;;;;4963874;28;20061;-76
2021/07/24 08:20:08;;;;;;;16.42;15.13;;;22.70;99.90;;;;;;4917669;28;20043;-77
2021/07/24 08:22:36;;;;;;;16.92;15.32;;;22.60;99.90;;;;;;4937672;28;20138;-76
2021/07/24 08:25:05;;;;;;;16.70;15.20;;;22.90;99.90;;;;;;4947736;28;20062;-76
2021/07/24 08:27:33;;;;;;;15.80;14.50;;;22.50;99.90;;;;;;4921600;29;20063;-76
2021/07/24 08:30:00;;;;;;;17.83;16.10;;;22.80;99.90;;;;;;4945099;28;20047;-76
2021/07/24 08:32:28;;;;;;;17.95;16.35;;;23.20;99.90;;;;;;4965259;28;20130;-77
2021/07/24 08:34:55;;;;;;;18.38;16.67;;;23.30;99.90;;;;;;4962964;28;20058;-76
2021/07/24 08:37:22;;;;;;;17.88;16.40;;;23.10;99.90;;;;;;4953903;28;20055;-77
2021/07/24 08:39:49;;;;;;;17.05;15.65;;;23.10;99.90;;;;;;4944753;28;20154;-75
2021/07/24 08:42:42;;;;;;;16.95;15.40;;;22.90;99.90;;;;;;4948102;28;20051;-76
2021/07/24 08:45:11;;;;;;;16.23;14.88;;;22.30;99.90;;;;;;4927384;29;20145;-75
2021/07/24 08:47:38;;;;;;;18.17;16.48;;;22.40;99.90;;;;;;4922597;28;20043;-76
2021/07/24 08:50:07;;;;;;;18.23;16.55;;;22.70;99.90;;;;;;4951927;28;20075;-75
2021/07/24 08:52:36;;;;;;;17.88;16.38;;;23.10;99.90;;;;;;4940311;28;20050;-75
2021/07/24 08:55:06;;;;;;;17.33;15.90;;;23.00;99.90;;;;;;4938972;28;20047;-76
2021/07/24 08:57:40;;;;;;;18.60;16.95;;;23.10;99.90;;;;;;4964045;28;20691;-75
2021/07/24 09:00:12;;;;;;;18.25;16.55;;;23.30;99.90;;;;;;4931089;28;20511;-75
2021/07/24 09:02:43;;;;;;;16.90;15.35;;;23.10;99.90;;;;;;4959307;28;20577;-74
2021/07/24 09:05:15;;;;;;;20.50;15.70;;;22.70;99.90;;;;;;4948752;28;20070;-75
2021/07/24 09:07:44;;;;;;;18.17;16.40;;;22.80;99.90;;;;;;4928148;29;20570;-76
2021/07/24 09:10:12;;;;;;;18.75;17.05;;;23.00;99.90;;;;;;4933710;28;20766;-76
2021/07/24 09:12:43;;;;;;;17.42;15.98;;;23.50;99.90;;;;;;4947027;28;20043;-75
2021/07/24 09:15:14;;;;;;;18.48;16.95;;;23.70;99.90;;;;;;4954625;28;20059;-76
2021/07/24 09:17:42;;;;;;;18.70;16.90;;;23.50;99.90;;;;;;4942982;28;20047;-76
2021/07/24 09:20:09;;;;;;;19.70;18.00;;;23.80;99.90;;;;;;4958076;28;20054;-76
2021/07/24 09:22:41;;;;;;;20.48;18.60;;;24.00;99.90;;;;;;4920302;28;20047;-75
2021/07/24 09:25:16;;;;;;;19.52;17.15;;;24.20;99.90;;;;;;4959220;28;20085;-76
2021/07/24 09:27:43;;;;;;;;;;;24.20;99.90;;;;;;4951235;28;20050;-76
2021/07/24 09:30:28;;;;;;;18.50;16.67;;;23.70;99.90;;;;;;4936490;28;19930;-76
2021/07/24 09:33:12;;;;;;;17.75;16.17;;;24.00;99.90;;;;;;4966506;28;20057;-76
2021/07/24 09:35:58;;;;;;;19.27;17.48;;;24.30;99.90;;;;;;4941082;28;20082;-75
2021/07/24 09:38:29;;;;;;;17.83;16.33;;;24.70;99.90;;;;;;4955412;28;20046;-77
2021/07/24 09:40:58;;;;;;;19.30;17.30;;;24.50;99.90;;;;;;4932253;28;20463;-76
2021/07/24 09:43:42;;;;;;;19.40;17.60;;;24.10;99.90;;;;;;4951100;28;20091;-77
2021/07/24 09:46:12;;;;;;;18.88;17.05;;;24.10;99.90;;;;;;4968140;28;20133;-76
2021/07/24 09:48:47;;;;;;;17.92;16.45;;;23.70;99.90;;;;;;4936689;28;20051;-77
2021/07/24 09:51:15;;;;;;;;;;;23.90;99.90;;;;;;4945314;28;20081;-74
2021/07/24 09:53:44;;;;;;;17.92;15.95;;;23.50;99.90;;;;;;4938223;28;19933;-75
2021/07/24 09:56:15;;;;;;;17.73;16.13;;;23.50;99.90;;;;;;4949854;28;20072;-77
2021/07/24 09:58:45;;;;;;;18.42;16.55;;;23.70;99.90;;;;;;4966923;28;20062;-75
2021/07/24 10:01:18;;;;;;;18.73;17.02;;;24.20;99.90;;;;;;4933926;28;20133;-76
2021/07/24 10:03:50;;;;;;;17.65;16.15;;;24.50;99.90;;;;;;4945815;29;20073;-75
2021/07/24 10:06:18;;;;;;;18.42;16.83;;;24.70;99.90;;;;;;4931512;29;20086;-76
2021/07/24 10:08:48;;;;;;;19.08;17.45;;;25.00;99.90;;;;;;4949943;29;20062;-75
2021/07/24 10:11:15;;;;;;;19.30;17.67;;;24.90;99.90;;;;;;4935986;28;20043;-77
2021/07/24 10:13:44;;;;;;;20.30;18.17;;;24.90;99.90;;;;;;4947665;28;20078;-76
2021/07/24 10:16:11;;;;;;;20.17;18.27;;;24.80;99.90;;;;;;4933088;28;20452;-77
2021/07/24 10:18:41;;;;;;;19.20;17.50;;;25.00;99.90;;;;;;4944399;28;20047;-75
2021/07/24 10:21:07;;;;;;;19.45;17.70;;;25.40;99.90;;;;;;4931668;28;20083;-75
2021/07/24 10:23:34;;;;;;;20.10;18.50;;;25.60;99.90;;;;;;4956354;28;20066;-75
2021/07/24 10:26:17;;;;;;;18.95;17.45;;;26.00;99.90;;;;;;4950820;28;20051;-74
2021/07/24 10:29:08;;;;;;;19.45;17.55;;;25.50;99.90;;;;;;4958043;28;20113;-76
2021/07/24 10:32:00;;;;;;;19.08;17.45;;;25.40;99.90;;;;;;4957886;28;20527;-75
2021/07/24 10:34:30;;;;;;;20.17;18.40;;;25.60;99.90;;;;;;4952336;28;20425;-75
2021/07/24 10:36:57;;;;;;;19.80;17.98;;;25.30;99.90;;;;;;4965443;28;20070;-75
2021/07/24 10:39:25;;;;;;;20.45;18.33;;;25.40;99.90;;;;;;4950299;28;20194;-75
2021/07/24 10:42:09;;;;;;;18.90;17.05;;;25.70;99.90;;;;;;4964263;28;20125;-76
2021/07/24 10:44:42;;;;;;;19.45;17.80;;;26.10;99.90;;;;;;4957586;28;20047;-75
2021/07/24 10:47:11;;;;;;;20.10;18.27;;;26.30;99.90;;;;;;4932968;28;20158;-75
2021/07/24 10:49:44;;;;;;;18.75;17.15;;;26.00;99.90;;;;;;4942084;28;20051;-75
2021/07/24 10:52:11;;;;;;;19.23;16.65;;;25.80;99.90;;;;;;4937424;28;20089;-75
2021/07/24 10:54:53;;;;;;;19.33;17.52;;;25.40;99.90;;;;;;4959976;28;20093;-75
2021/07/24 10:57:54;;;;;;;21.20;18.45;;;25.20;99.90;;;;;;4952890;28;20470;-75
2021/07/24 11:00:32;;;;;;;19.30;17.70;;;25.60;99.90;;;;;;4930090;29;20051;-75
2021/07/24 11:02:59;;;;;;;21.70;19.60;;;25.90;99.90;;;;;;4945004;28;20046;-75
2021/07/24 11:05:37;;;;;;;20.80;18.75;;;26.20;99.90;;;;;;4948414;28;20046;-77
2021/07/24 11:08:04;;;;;;;21.05;19.08;;;26.00;99.90;;;;;;4962809;28;20061;-76
2021/07/24 11:10:31;;;;;;;19.80;17.80;;;26.20;99.90;;;;;;4929285;28;20055;-74
2021/07/24 11:12:59;;;;;;;22.17;20.20;;;26.30;99.90;;;;;;4945855;28;20554;-78
2021/07/24 11:15:43;;;;;;;20.02;18.33;;;26.40;99.90;;;;;;4930830;29;20067;-79
2021/07/24 11:18:24;;;;;;;23.83;19.33;;;25.80;99.90;;;;;;4947806;28;20043;-80
2021/07/24 11:20:52;;;;;;;21.10;19.30;;;25.70;99.90;;;;;;4947427;28;20374;-80
2021/07/24 11:23:20;;;;;;;23.20;19.40;;;26.00;99.90;;;;;;4931323;29;20043;-79
2021/07/24 11:25:47;;;;;;;22.08;19.63;;;26.10;99.90;;;;;;4945751;28;20058;-80
2021/07/24 11:28:21;;;;;;;20.23;18.42;;;26.30;99.90;;;;;;4951189;28;20077;-80
2021/07/24 11:31:05;;;;;;;21.23;18.90;;;26.50;99.90;;;;;;4950528;28;20134;-81
2021/07/24 11:33:32;;;;;;;20.17;18.27;;;27.00;99.90;;;;;;4931202;29;20584;-80
2021/07/24 11:36:07;;;;;;;20.25;18.40;;;26.80;99.90;;;;;;4949323;29;20047;-81
2021/07/24 11:38:36;;;;;;;;;;;26.70;99.90;;;;;;4932536;29;20057;-81
2021/07/24 11:41:08;;;;;;;21.75;19.42;;;26.90;99.90;;;;;;4945941;28;19926;-81
2021/07/24 11:43:37;;;;;;;20.98;18.90;;;27.30;99.90;;;;;;4950992;28;20043;-81
2021/07/24 11:46:06;;;;;;;20.50;18.63;;;27.10;99.90;;;;;;4949532;28;20051;-80
2021/07/24 11:48:34;;;;;;;19.85;18.15;;;26.80;99.90;;;;;;4950448;28;20050;-80
2021/07/24 11:51:06;;;;;;;20.13;18.23;;;26.70;99.90;;;;;;4933819;28;20069;-80
2021/07/24 11:53:34;;;;;;;20.00;17.92;;;26.70;99.90;;;;;;4953983;28;20050;-80
2021/07/24 11:56:01;;;;;;;19.52;17.80;;;26.60;99.90;;;;;;4952397;28;20051;-80
2021/07/24 11:58:30;;;;;;;19.75;17.83;;;26.60;99.90;;;;;;4948503;29;20538;-81
2021/07/24 12:00:57;;;;;;;21.33;19.25;;;26.40;99.90;;;;;;4929240;29;20134;-80
2021/07/24 12:03:29;;;;;;;21.27;19.27;;;26.30;99.90;;;;;;4951183;28;20078;-81
2021/07/24 12:06:08;;;;;;;21.30;19.40;;;26.40;99.90;;;;;;4933414;28;20050;-81
2021/07/24 12:08:37;;;;;;;20.35;18.45;;;26.50;99.90;;;;;;4933948;28;20051;-80
2021/07/24 12:11:10;;;;;;;19.33;17.63;;;26.40;99.90;;;;;;4946457;28;20062;-81
2021/07/24 12:13:38;;;;;;;22.80;18.48;;;26.60;99.90;;;;;;4948868;28;20066;-81
2021/07/24 12:16:09;;;;;;;19.55;17.38;;;26.40;99.90;;;;;;4965222;28;20215;-83
2021/07/24 12:18:42;;;;;;;22.83;19.08;;;26.50;99.90;;;;;;4955385;28;20058;-82
2021/07/24 12:21:12;;;;;;;20.77;18.88;;;26.90;99.90;;;;;;4949411;28;20362;-81
2021/07/24 12:23:51;;;;;;;20.17;18.38;;;27.50;99.90;;;;;;4927281;28;20051;-81
2021/07/24 12:26:31;;;;;;;20.65;18.60;;;28.00;99.90;;;;;;4943761;28;20057;-82
2021/07/24 12:29:01;;;;;;;20.52;18.75;;;28.40;99.90;;;;;;4949514;28;20051;-82
2021/07/24 12:31:30;;;;;;;21.15;19.35;;;28.50;99.90;;;;;;4948524;28;20050;-82
2021/07/24 12:34:02;;;;;;;21.50;19.20;;;28.40;99.90;;;;;;4917253;28;20053;-81
2021/07/24 12:36:29;;;;;;;21.42;19.38;;;28.30;99.90;;;;;;4913104;29;20051;-82
2021/07/24 12:38:58;;;;;;;20.48;18.65;;;28.20;99.90;;;;;;4921596;29;20054;-82
2021/07/24 12:41:33;;;;;;;21.08;18.92;;;28.40;99.90;;;;;;4929186;29;20578;-82
2021/07/24 12:44:06;;;;;;;20.40;18.52;;;28.30;99.90;;;;;;4945932;28;20051;-80
2021/07/24 12:46:34;;;;;;;20.00;18.00;;;28.10;99.90;;;;;;4935068;28;20146;-79